CAL517 RCSS-ZBAA
Flight info
| Callsign | CAL517 |
|---|---|
| Flight time | N/A |
| Altitude | 37000 |
| Route | PIANO1J PIANO L3 VIOLA R596 SULEM/K0883S1160 R596 DST V143 SAPIN A470 DPX A593 DALIM W157 BEKDO/K0878S1190 W157 AVBOX AVBOX6J |
| Aircraft | B77W/H-SDE1E2E3FGHIJ2J3J4J5M1RWXY/LB1D1 |
Departure
| Time | 2026-05-06 11:29 |
|---|---|
| Airport | Taipei Songshan International Airport (RCSS) |
Arrival
| Time | N/A |
|---|---|
| Airport | Beijing Capital International Airport (ZBAA) |
| Time | Latitude | Longitude | Altitude | Speed | Heading |
|---|---|---|---|---|---|
| 2026-05-06 11:29 | 25.06753 | 121.61884 | 2811 ft | 246 kts | 92° |
| 2026-05-06 11:29 | 25.06696 | 121.63804 | 3397 ft | 252 kts | 92° |
| 2026-05-06 11:30 | 25.06635 | 121.65750 | 3968 ft | 256 kts | 92° |
| 2026-05-06 11:30 | 25.06572 | 121.67759 | 4545 ft | 262 kts | 92° |
| 2026-05-06 11:30 | 25.06763 | 121.69756 | 5086 ft | 265 kts | 72° |
| 2026-05-06 11:30 | 25.07713 | 121.71529 | 5642 ft | 269 kts | 45° |
| 2026-05-06 11:31 | 25.09295 | 121.72694 | 6202 ft | 286 kts | 18° |
| 2026-05-06 11:31 | 25.10550 | 121.73057 | 6582 ft | 292 kts | 9° |
| 2026-05-06 11:31 | 25.11031 | 121.73156 | 6722 ft | 293 kts | 8° |
| 2026-05-06 11:31 | 25.13080 | 121.73536 | 7294 ft | 297 kts | 7° |
| 2026-05-06 11:32 | 25.15147 | 121.73906 | 7856 ft | 300 kts | 7° |
| 2026-05-06 11:32 | 25.17190 | 121.74271 | 8401 ft | 304 kts | 7° |
| 2026-05-06 11:32 | 25.19317 | 121.74651 | 8957 ft | 306 kts | 6° |
| 2026-05-06 11:32 | 25.21437 | 121.75030 | 9507 ft | 308 kts | 6° |
| 2026-05-06 11:33 | 25.23603 | 121.75418 | 10066 ft | 312 kts | 6° |
| 2026-05-06 11:33 | 25.25847 | 121.75817 | 10645 ft | 332 kts | 7° |
| 2026-05-06 11:33 | 25.28237 | 121.76242 | 11237 ft | 353 kts | 7° |
| 2026-05-06 11:33 | 25.30727 | 121.76687 | 11815 ft | 362 kts | 7° |
| 2026-05-06 11:34 | 25.33211 | 121.77132 | 12365 ft | 365 kts | 7° |
| 2026-05-06 11:34 | 25.35785 | 121.77594 | 12921 ft | 367 kts | 8° |
| 2026-05-06 11:34 | 25.38308 | 121.78048 | 13460 ft | 370 kts | 8° |
| 2026-05-06 11:34 | 25.40913 | 121.78516 | 14016 ft | 372 kts | 7° |
| 2026-05-06 11:35 | 25.43503 | 121.78982 | 14562 ft | 375 kts | 7° |
| 2026-05-06 11:35 | 25.46127 | 121.79454 | 15112 ft | 378 kts | 8° |
| 2026-05-06 11:35 | 25.48748 | 121.79926 | 15657 ft | 381 kts | 8° |
| 2026-05-06 11:35 | 25.51371 | 121.80399 | 16197 ft | 382 kts | 8° |
| 2026-05-06 11:36 | 25.54062 | 121.80885 | 16745 ft | 386 kts | 8° |
| 2026-05-06 11:36 | 25.56739 | 121.81168 | 17289 ft | 387 kts | 0° |
| 2026-05-06 11:36 | 25.59440 | 121.81241 | 17840 ft | 389 kts | 360° |
| 2026-05-06 11:36 | 25.62196 | 121.81304 | 18399 ft | 391 kts | 360° |
| 2026-05-06 11:37 | 25.64925 | 121.81368 | 18948 ft | 394 kts | 359° |
| 2026-05-06 11:37 | 25.67705 | 121.81434 | 19502 ft | 398 kts | 359° |
| 2026-05-06 11:37 | 25.70509 | 121.81501 | 20058 ft | 401 kts | 359° |
| 2026-05-06 11:37 | 25.73323 | 121.81568 | 20613 ft | 403 kts | 359° |
| 2026-05-06 11:38 | 25.76133 | 121.81691 | 21166 ft | 407 kts | 4° |
| 2026-05-06 11:38 | 25.79000 | 121.82236 | 21727 ft | 411 kts | 12° |
| 2026-05-06 11:38 | 25.81747 | 121.83257 | 22281 ft | 419 kts | 20° |
| 2026-05-06 11:38 | 25.84360 | 121.84756 | 22843 ft | 426 kts | 29° |
| 2026-05-06 11:39 | 25.86830 | 121.86666 | 23419 ft | 429 kts | 33° |
| 2026-05-06 11:39 | 25.89245 | 121.88637 | 23992 ft | 436 kts | 33° |
| 2026-05-06 11:39 | 25.91742 | 121.90675 | 24589 ft | 441 kts | 33° |
| 2026-05-06 11:39 | 25.94210 | 121.92686 | 25175 ft | 442 kts | 33° |
| 2026-05-06 11:40 | 25.96738 | 121.94743 | 25772 ft | 449 kts | 33° |
| 2026-05-06 11:40 | 25.99279 | 121.96807 | 26369 ft | 451 kts | 33° |
| 2026-05-06 11:40 | 26.01861 | 121.98905 | 26971 ft | 457 kts | 33° |
| 2026-05-06 11:40 | 26.04440 | 122.00975 | 27564 ft | 459 kts | 32° |
| 2026-05-06 11:41 | 26.07086 | 122.03042 | 28164 ft | 464 kts | 32° |
| 2026-05-06 11:41 | 26.09746 | 122.05115 | 28764 ft | 468 kts | 32° |
| 2026-05-06 11:41 | 26.12416 | 122.07201 | 29359 ft | 471 kts | 32° |
| 2026-05-06 11:41 | 26.15124 | 122.09318 | 29956 ft | 476 kts | 31° |
| 2026-05-06 11:42 | 26.17894 | 122.11485 | 30562 ft | 480 kts | 31° |
| 2026-05-06 11:42 | 26.20638 | 122.13635 | 31161 ft | 483 kts | 31° |
| 2026-05-06 11:42 | 26.23447 | 122.15836 | 31769 ft | 486 kts | 31° |
| 2026-05-06 11:42 | 26.26259 | 122.18042 | 32378 ft | 489 kts | 31° |
| 2026-05-06 11:43 | 26.29068 | 122.20247 | 32979 ft | 491 kts | 30° |
| 2026-05-06 11:43 | 26.31864 | 122.22443 | 33638 ft | 492 kts | 30° |
| 2026-05-06 11:43 | 26.34695 | 122.24669 | 34314 ft | 494 kts | 30° |
| 2026-05-06 11:44 | 26.40361 | 122.29128 | 35676 ft | 492 kts | 30° |
| 2026-05-06 11:44 | 26.43181 | 122.31349 | 36087 ft | 495 kts | 30° |
| 2026-05-06 11:44 | 26.48833 | 122.35805 | 36095 ft | 492 kts | 30° |
| 2026-05-06 11:45 | 26.54436 | 122.40228 | 36102 ft | 490 kts | 30° |
| 2026-05-06 11:45 | 26.60037 | 122.44653 | 36103 ft | 491 kts | 30° |
| 2026-05-06 11:46 | 26.65591 | 122.49048 | 36098 ft | 489 kts | 30° |
| 2026-05-06 11:46 | 26.71176 | 122.53472 | 36096 ft | 491 kts | 30° |
| 2026-05-06 11:47 | 26.76722 | 122.57870 | 36092 ft | 488 kts | 30° |
| 2026-05-06 11:47 | 26.82278 | 122.62282 | 36092 ft | 489 kts | 30° |
| 2026-05-06 11:48 | 26.87873 | 122.66730 | 36086 ft | 489 kts | 31° |
| 2026-05-06 11:48 | 26.93440 | 122.71162 | 36084 ft | 489 kts | 31° |
| 2026-05-06 11:49 | 26.98985 | 122.75581 | 36086 ft | 489 kts | 30° |
| 2026-05-06 11:49 | 27.04545 | 122.80019 | 36089 ft | 488 kts | 31° |
| 2026-05-06 11:50 | 27.10080 | 122.84441 | 36090 ft | 488 kts | 31° |
| 2026-05-06 11:50 | 27.15742 | 122.88576 | 36094 ft | 478 kts | 21° |
| 2026-05-06 11:51 | 27.22055 | 122.90765 | 36099 ft | 473 kts | 4° |
| 2026-05-06 11:51 | 27.28498 | 122.90695 | 36097 ft | 459 kts | 347° |
| 2026-05-06 11:52 | 27.34507 | 122.88516 | 36097 ft | 456 kts | 331° |
| 2026-05-06 11:52 | 27.39612 | 122.84508 | 36102 ft | 451 kts | 315° |
| 2026-05-06 11:53 | 27.43451 | 122.79012 | 36101 ft | 450 kts | 300° |
| 2026-05-06 11:53 | 27.45691 | 122.72567 | 36095 ft | 451 kts | 284° |
| 2026-05-06 11:54 | 27.46161 | 122.65420 | 36094 ft | 459 kts | 268° |
| 2026-05-06 11:54 | 27.45209 | 122.58398 | 36097 ft | 460 kts | 266° |
| 2026-05-06 11:55 | 27.44578 | 122.51242 | 36097 ft | 460 kts | 269° |
| 2026-05-06 11:55 | 27.44256 | 122.44151 | 36088 ft | 457 kts | 272° |
| 2026-05-06 11:56 | 27.44931 | 122.37092 | 36096 ft | 455 kts | 282° |
| 2026-05-06 11:56 | 27.46061 | 122.30250 | 36100 ft | 453 kts | 282° |
| 2026-05-06 11:57 | 27.47242 | 122.23297 | 36100 ft | 452 kts | 282° |
| 2026-05-06 11:57 | 27.48429 | 122.16393 | 36100 ft | 453 kts | 283° |
| 2026-05-06 11:58 | 27.49637 | 122.09392 | 36100 ft | 452 kts | 282° |
| 2026-05-06 11:58 | 27.50823 | 122.02528 | 36092 ft | 453 kts | 283° |
| 2026-05-06 11:59 | 27.52020 | 121.95591 | 36092 ft | 453 kts | 282° |
| 2026-05-06 11:59 | 27.53201 | 121.88733 | 36090 ft | 453 kts | 282° |
| 2026-05-06 12:00 | 27.54407 | 121.81710 | 36091 ft | 453 kts | 282° |
| 2026-05-06 12:00 | 27.55582 | 121.74850 | 36092 ft | 453 kts | 282° |
| 2026-05-06 12:01 | 27.56769 | 121.67898 | 36094 ft | 453 kts | 282° |
| 2026-05-06 12:01 | 27.57934 | 121.61056 | 36093 ft | 454 kts | 282° |
| 2026-05-06 12:02 | 27.59125 | 121.54147 | 36092 ft | 454 kts | 283° |
| 2026-05-06 12:02 | 27.60370 | 121.47150 | 36089 ft | 453 kts | 283° |
| 2026-05-06 12:03 | 27.61587 | 121.40281 | 36098 ft | 454 kts | 282° |
| 2026-05-06 12:03 | 27.62809 | 121.33356 | 36114 ft | 452 kts | 282° |
| 2026-05-06 12:04 | 27.64028 | 121.26420 | 36113 ft | 452 kts | 282° |
| 2026-05-06 12:04 | 27.65227 | 121.19579 | 36113 ft | 452 kts | 282° |
| 2026-05-06 12:05 | 27.66437 | 121.12655 | 36113 ft | 453 kts | 282° |
| 2026-05-06 12:05 | 27.67639 | 121.05749 | 36113 ft | 452 kts | 282° |
| 2026-05-06 12:06 | 27.68827 | 120.98907 | 36112 ft | 452 kts | 282° |
| 2026-05-06 12:06 | 27.70018 | 120.92021 | 36112 ft | 453 kts | 282° |
| 2026-05-06 12:07 | 27.71210 | 120.85113 | 36109 ft | 453 kts | 282° |
| 2026-05-06 12:07 | 27.72381 | 120.78303 | 36108 ft | 454 kts | 282° |
| 2026-05-06 12:08 | 27.73758 | 120.71530 | 36105 ft | 453 kts | 290° |
| 2026-05-06 12:08 | 27.76589 | 120.65352 | 36100 ft | 453 kts | 305° |
| 2026-05-06 12:09 | 27.80906 | 120.60323 | 36106 ft | 455 kts | 321° |
| 2026-05-06 12:09 | 27.86374 | 120.56789 | 36112 ft | 461 kts | 332° |
| 2026-05-06 12:10 | 27.92171 | 120.53728 | 36111 ft | 461 kts | 332° |
| 2026-05-06 12:10 | 27.97857 | 120.50702 | 36109 ft | 461 kts | 332° |
| 2026-05-06 12:11 | 28.03557 | 120.47650 | 36108 ft | 461 kts | 332° |
| 2026-05-06 12:11 | 28.09348 | 120.44539 | 36110 ft | 461 kts | 332° |
| 2026-05-06 12:12 | 28.14999 | 120.41495 | 36119 ft | 463 kts | 332° |
| 2026-05-06 12:12 | 28.20881 | 120.38318 | 36118 ft | 478 kts | 332° |
| 2026-05-06 12:13 | 28.26886 | 120.35072 | 36107 ft | 478 kts | 332° |
| 2026-05-06 12:13 | 28.32929 | 120.31802 | 36123 ft | 478 kts | 331° |
| 2026-05-06 12:14 | 28.38877 | 120.28578 | 36133 ft | 478 kts | 331° |
| 2026-05-06 12:14 | 28.44877 | 120.25322 | 36147 ft | 477 kts | 331° |
| 2026-05-06 12:15 | 28.50864 | 120.22068 | 36151 ft | 478 kts | 331° |
| 2026-05-06 12:15 | 28.56806 | 120.18835 | 36137 ft | 478 kts | 331° |
| 2026-05-06 12:16 | 28.62713 | 120.15617 | 36108 ft | 479 kts | 331° |
| 2026-05-06 12:16 | 28.68671 | 120.12366 | 36086 ft | 479 kts | 331° |
| 2026-05-06 12:17 | 28.74589 | 120.09133 | 36075 ft | 480 kts | 331° |
| 2026-05-06 12:17 | 28.80541 | 120.05878 | 36072 ft | 481 kts | 331° |
| 2026-05-06 12:18 | 28.86523 | 120.02602 | 36073 ft | 482 kts | 330° |
| 2026-05-06 12:18 | 28.92450 | 119.99353 | 36065 ft | 480 kts | 330° |
| 2026-05-06 12:19 | 28.98399 | 119.96087 | 36065 ft | 480 kts | 330° |
| 2026-05-06 12:19 | 29.04341 | 119.92820 | 36053 ft | 481 kts | 330° |
| 2026-05-06 12:20 | 29.10342 | 119.89516 | 36046 ft | 481 kts | 330° |
| 2026-05-06 12:20 | 29.15266 | 119.86803 | 36042 ft | 481 kts | 330° |
| 2026-05-06 12:21 | 29.24141 | 119.81905 | 36044 ft | 482 kts | 330° |
| 2026-05-06 12:22 | 29.30169 | 119.78573 | 36052 ft | 483 kts | 330° |
| 2026-05-06 12:22 | 29.36114 | 119.75282 | 36063 ft | 480 kts | 330° |
| 2026-05-06 12:23 | 29.41991 | 119.72025 | 36072 ft | 483 kts | 330° |
| 2026-05-06 12:23 | 29.47928 | 119.68729 | 36073 ft | 482 kts | 330° |
| 2026-05-06 12:24 | 29.53862 | 119.65469 | 36073 ft | 483 kts | 334° |
| 2026-05-06 12:24 | 29.60292 | 119.63297 | 36073 ft | 489 kts | 342° |
| 2026-05-06 12:25 | 29.66795 | 119.61472 | 36066 ft | 490 kts | 342° |
| 2026-05-06 12:25 | 29.73352 | 119.59623 | 36065 ft | 489 kts | 342° |
| 2026-05-06 12:26 | 29.79841 | 119.57787 | 36064 ft | 490 kts | 342° |
| 2026-05-06 12:26 | 29.86399 | 119.55926 | 36060 ft | 489 kts | 342° |
| 2026-05-06 12:27 | 29.92955 | 119.54062 | 36063 ft | 490 kts | 342° |
| 2026-05-06 12:27 | 29.99509 | 119.52195 | 36069 ft | 491 kts | 342° |
| 2026-05-06 12:28 | 30.06120 | 119.50308 | 36061 ft | 491 kts | 342° |
| 2026-05-06 12:28 | 30.12602 | 119.48457 | 36060 ft | 490 kts | 342° |
| 2026-05-06 12:29 | 30.19002 | 119.46626 | 36056 ft | 490 kts | 342° |
| 2026-05-06 12:30 | 30.30329 | 119.43378 | 36055 ft | 492 kts | 341° |
| 2026-05-06 12:30 | 30.36813 | 119.41517 | 36057 ft | 492 kts | 341° |
| 2026-05-06 12:31 | 30.43342 | 119.39639 | 36059 ft | 492 kts | 341° |
| 2026-05-06 12:31 | 30.49958 | 119.37734 | 36059 ft | 492 kts | 342° |
| 2026-05-06 12:32 | 30.56580 | 119.35824 | 36048 ft | 493 kts | 342° |
| 2026-05-06 12:32 | 30.63040 | 119.33958 | 36048 ft | 494 kts | 341° |
| 2026-05-06 12:33 | 30.69680 | 119.32038 | 36032 ft | 492 kts | 341° |
| 2026-05-06 12:33 | 30.76381 | 119.30097 | 36023 ft | 494 kts | 341° |
| 2026-05-06 12:34 | 30.82936 | 119.28196 | 36016 ft | 494 kts | 341° |
| 2026-05-06 12:34 | 30.89465 | 119.26300 | 36009 ft | 494 kts | 341° |
| 2026-05-06 12:35 | 30.96043 | 119.24387 | 36005 ft | 496 kts | 341° |
| 2026-05-06 12:35 | 31.02536 | 119.22496 | 36001 ft | 494 kts | 341° |
| 2026-05-06 12:36 | 31.09156 | 119.20564 | 36000 ft | 497 kts | 341° |
| 2026-05-06 12:36 | 31.15807 | 119.18623 | 35997 ft | 495 kts | 341° |
| 2026-05-06 12:37 | 31.22454 | 119.16678 | 35999 ft | 497 kts | 341° |
| 2026-05-06 12:37 | 31.29072 | 119.14739 | 36000 ft | 496 kts | 341° |
| 2026-05-06 12:38 | 31.35706 | 119.12793 | 35998 ft | 498 kts | 341° |
| 2026-05-06 12:38 | 31.42203 | 119.10884 | 35996 ft | 497 kts | 341° |
| 2026-05-06 12:39 | 31.48791 | 119.08946 | 35996 ft | 498 kts | 341° |
| 2026-05-06 12:39 | 31.55319 | 119.07023 | 35992 ft | 497 kts | 341° |
| 2026-05-06 12:40 | 31.61938 | 119.05006 | 35993 ft | 498 kts | 341° |
| 2026-05-06 12:40 | 31.68506 | 119.02501 | 35996 ft | 496 kts | 335° |
| 2026-05-06 12:41 | 31.74896 | 118.99625 | 35991 ft | 494 kts | 335° |
| 2026-05-06 12:41 | 31.81333 | 118.96724 | 35996 ft | 495 kts | 335° |
| 2026-05-06 12:42 | 31.87749 | 118.93842 | 35993 ft | 494 kts | 335° |
| 2026-05-06 12:42 | 31.94172 | 118.90960 | 35995 ft | 494 kts | 335° |
| 2026-05-06 12:43 | 32.00570 | 118.88085 | 35991 ft | 494 kts | 335° |
| 2026-05-06 12:43 | 32.07005 | 118.85190 | 35991 ft | 495 kts | 335° |
| 2026-05-06 12:44 | 32.12974 | 118.82500 | 35987 ft | 495 kts | 335° |
| 2026-05-06 12:44 | 32.19518 | 118.79547 | 35986 ft | 495 kts | 335° |
| 2026-05-06 12:45 | 32.25855 | 118.76684 | 35985 ft | 495 kts | 335° |
| 2026-05-06 12:46 | 32.35367 | 118.72377 | 35983 ft | 495 kts | 335° |
| 2026-05-06 12:46 | 32.41737 | 118.69488 | 35984 ft | 495 kts | 335° |
| 2026-05-06 12:47 | 32.48112 | 118.66592 | 35983 ft | 496 kts | 335° |
| 2026-05-06 12:47 | 32.54371 | 118.63744 | 35982 ft | 495 kts | 335° |
| 2026-05-06 12:48 | 32.60722 | 118.60850 | 35981 ft | 496 kts | 335° |
| 2026-05-06 12:48 | 32.67107 | 118.57936 | 35981 ft | 495 kts | 335° |
| 2026-05-06 12:49 | 32.73577 | 118.55466 | 35977 ft | 498 kts | 339° |
| 2026-05-06 12:49 | 32.80165 | 118.53178 | 35976 ft | 499 kts | 339° |
| 2026-05-06 12:50 | 32.86666 | 118.50890 | 35977 ft | 499 kts | 339° |
| 2026-05-06 12:50 | 32.93284 | 118.48540 | 35973 ft | 499 kts | 339° |
| 2026-05-06 12:51 | 32.99823 | 118.46206 | 35971 ft | 501 kts | 339° |
| 2026-05-06 12:51 | 33.06068 | 118.43970 | 35964 ft | 498 kts | 339° |
| 2026-05-06 12:52 | 33.12371 | 118.41706 | 35954 ft | 499 kts | 339° |
| 2026-05-06 12:52 | 33.19054 | 118.39300 | 35962 ft | 499 kts | 339° |
| 2026-05-06 12:53 | 33.25649 | 118.36925 | 35965 ft | 499 kts | 339° |
| 2026-05-06 12:53 | 33.32119 | 118.34595 | 35967 ft | 500 kts | 338° |
| 2026-05-06 12:54 | 33.38854 | 118.32166 | 35970 ft | 498 kts | 338° |
| 2026-05-06 12:54 | 33.45406 | 118.29797 | 35968 ft | 499 kts | 338° |
| 2026-05-06 12:55 | 33.51953 | 118.27428 | 35964 ft | 498 kts | 338° |
| 2026-05-06 12:55 | 33.58558 | 118.25034 | 35967 ft | 500 kts | 338° |
| 2026-05-06 12:56 | 33.65038 | 118.22681 | 35962 ft | 497 kts | 338° |
| 2026-05-06 12:56 | 33.71588 | 118.20298 | 35963 ft | 500 kts | 338° |
| 2026-05-06 12:57 | 33.78136 | 118.17914 | 35963 ft | 498 kts | 338° |
| 2026-05-06 12:57 | 33.84725 | 118.15514 | 35963 ft | 499 kts | 338° |
| 2026-05-06 12:58 | 33.91187 | 118.13166 | 35960 ft | 498 kts | 338° |
| 2026-05-06 12:58 | 33.97757 | 118.10776 | 35955 ft | 497 kts | 337° |
| 2026-05-06 12:59 | 34.04108 | 118.08463 | 35953 ft | 497 kts | 338° |
| 2026-05-06 12:59 | 34.10688 | 118.06075 | 35951 ft | 497 kts | 338° |
| 2026-05-06 13:00 | 34.17286 | 118.03677 | 35946 ft | 497 kts | 337° |
| 2026-05-06 13:00 | 34.23789 | 118.01308 | 35942 ft | 498 kts | 337° |
| 2026-05-06 13:01 | 34.30368 | 117.98919 | 35941 ft | 497 kts | 338° |
| 2026-05-06 13:01 | 34.36930 | 117.96584 | 35951 ft | 496 kts | 338° |
| 2026-05-06 13:02 | 34.43329 | 117.94303 | 35954 ft | 496 kts | 338° |
| 2026-05-06 13:02 | 34.49921 | 117.91948 | 35948 ft | 497 kts | 338° |
| 2026-05-06 13:03 | 34.56385 | 117.89635 | 35942 ft | 494 kts | 337° |
| 2026-05-06 13:03 | 34.62784 | 117.87339 | 35943 ft | 494 kts | 338° |
| 2026-05-06 13:04 | 34.69231 | 117.85023 | 35937 ft | 496 kts | 337° |
| 2026-05-06 13:04 | 34.75803 | 117.82657 | 35934 ft | 496 kts | 337° |
| 2026-05-06 13:05 | 34.82155 | 117.80367 | 35933 ft | 497 kts | 337° |
| 2026-05-06 13:05 | 34.88733 | 117.77960 | 35935 ft | 496 kts | 337° |
| 2026-05-06 13:06 | 34.95178 | 117.75603 | 35940 ft | 496 kts | 337° |
| 2026-05-06 13:06 | 35.01582 | 117.73258 | 35945 ft | 495 kts | 337° |
| 2026-05-06 13:07 | 35.07946 | 117.70924 | 35957 ft | 495 kts | 337° |
| 2026-05-06 13:07 | 35.13575 | 117.68860 | 35962 ft | 496 kts | 337° |
| 2026-05-06 13:08 | 35.17525 | 117.67411 | 35962 ft | 494 kts | 337° |
| 2026-05-06 13:08 | 35.23633 | 117.65166 | 35962 ft | 496 kts | 337° |
| 2026-05-06 13:09 | 35.30230 | 117.62737 | 35964 ft | 495 kts | 337° |
| 2026-05-06 13:09 | 35.36717 | 117.60345 | 35959 ft | 496 kts | 336° |
| 2026-05-06 13:10 | 35.43243 | 117.57935 | 35961 ft | 496 kts | 336° |
| 2026-05-06 13:10 | 35.49432 | 117.55646 | 35964 ft | 496 kts | 336° |
| 2026-05-06 13:11 | 35.56093 | 117.53178 | 35964 ft | 495 kts | 336° |
| 2026-05-06 13:11 | 35.62543 | 117.50784 | 35966 ft | 496 kts | 336° |
| 2026-05-06 13:12 | 35.68955 | 117.48399 | 35958 ft | 494 kts | 336° |
| 2026-05-06 13:12 | 35.75356 | 117.46016 | 35953 ft | 494 kts | 336° |
| 2026-05-06 13:13 | 35.81834 | 117.43597 | 35951 ft | 495 kts | 336° |
| 2026-05-06 13:13 | 35.88260 | 117.41196 | 35946 ft | 497 kts | 336° |
| 2026-05-06 13:14 | 35.94644 | 117.38807 | 35952 ft | 496 kts | 336° |
| 2026-05-06 13:14 | 36.01032 | 117.36413 | 35956 ft | 493 kts | 336° |
| 2026-05-06 13:15 | 36.07509 | 117.34021 | 35980 ft | 493 kts | 335° |
| 2026-05-06 13:15 | 36.14026 | 117.31614 | 35978 ft | 491 kts | 335° |
| 2026-05-06 13:16 | 36.20503 | 117.29216 | 35979 ft | 491 kts | 335° |
| 2026-05-06 13:16 | 36.27023 | 117.26796 | 35986 ft | 490 kts | 335° |
| 2026-05-06 13:17 | 36.33328 | 117.24454 | 35991 ft | 489 kts | 334° |
| 2026-05-06 13:17 | 36.39764 | 117.22057 | 35994 ft | 489 kts | 334° |
| 2026-05-06 13:18 | 36.45806 | 117.19237 | 35999 ft | 484 kts | 328° |
| 2026-05-06 13:18 | 36.51736 | 117.16151 | 36004 ft | 481 kts | 328° |
| 2026-05-06 13:19 | 36.57742 | 117.13019 | 35989 ft | 480 kts | 328° |
| 2026-05-06 13:19 | 36.63750 | 117.09885 | 35977 ft | 478 kts | 328° |
| 2026-05-06 13:20 | 36.69613 | 117.06822 | 35975 ft | 478 kts | 328° |
| 2026-05-06 13:20 | 36.75604 | 117.03688 | 35974 ft | 475 kts | 328° |
| 2026-05-06 13:21 | 36.81428 | 117.00638 | 35978 ft | 473 kts | 328° |
| 2026-05-06 13:21 | 36.87381 | 116.97512 | 35982 ft | 474 kts | 328° |
| 2026-05-06 13:22 | 36.93361 | 116.94370 | 35985 ft | 471 kts | 327° |
| 2026-05-06 13:22 | 36.99368 | 116.91204 | 35985 ft | 475 kts | 327° |
| 2026-05-06 13:23 | 37.05196 | 116.88132 | 35988 ft | 472 kts | 327° |
| 2026-05-06 13:23 | 37.11136 | 116.84995 | 35989 ft | 471 kts | 327° |
| 2026-05-06 13:24 | 37.17172 | 116.81798 | 35992 ft | 473 kts | 327° |
| 2026-05-06 13:24 | 37.23323 | 116.78773 | 35999 ft | 480 kts | 333° |
| 2026-05-06 13:25 | 37.29468 | 116.76451 | 35995 ft | 481 kts | 333° |
| 2026-05-06 13:25 | 37.35808 | 116.74067 | 35996 ft | 482 kts | 333° |
| 2026-05-06 13:26 | 37.42002 | 116.71729 | 35996 ft | 483 kts | 333° |
| 2026-05-06 13:26 | 37.48376 | 116.69315 | 36006 ft | 485 kts | 333° |
| 2026-05-06 13:27 | 37.54702 | 116.66915 | 36006 ft | 483 kts | 333° |
| 2026-05-06 13:27 | 37.60045 | 116.64883 | 36007 ft | 483 kts | 333° |
| 2026-05-06 13:28 | 37.66147 | 116.62564 | 36012 ft | 473 kts | 333° |
| 2026-05-06 13:28 | 37.69321 | 116.61362 | 35951 ft | 460 kts | 332° |
| 2026-05-06 13:28 | 37.72346 | 116.60208 | 35473 ft | 457 kts | 333° |
| 2026-05-06 13:28 | 37.75356 | 116.59055 | 34879 ft | 457 kts | 332° |
| 2026-05-06 13:29 | 37.78148 | 116.57985 | 34395 ft | 455 kts | 332° |
| 2026-05-06 13:29 | 37.81189 | 116.56821 | 33900 ft | 452 kts | 332° |
| 2026-05-06 13:29 | 37.84164 | 116.55680 | 33422 ft | 450 kts | 333° |
| 2026-05-06 13:29 | 37.87099 | 116.54555 | 32997 ft | 447 kts | 332° |
| 2026-05-06 13:30 | 37.89640 | 116.53579 | 32591 ft | 446 kts | 333° |
| 2026-05-06 13:30 | 37.92692 | 116.52406 | 32105 ft | 444 kts | 333° |
| 2026-05-06 13:30 | 37.95691 | 116.51154 | 31591 ft | 437 kts | 328° |
| 2026-05-06 13:30 | 37.98391 | 116.49512 | 30991 ft | 429 kts | 321° |
| 2026-05-06 13:31 | 38.00794 | 116.47515 | 30361 ft | 425 kts | 316° |
| 2026-05-06 13:31 | 38.03145 | 116.45366 | 30023 ft | 420 kts | 316° |
| 2026-05-06 13:31 | 38.05499 | 116.43208 | 29811 ft | 414 kts | 315° |